Time;durP1;ratioP1;P1;durP2;ratioP2;P2;SDS_P1;SDS_P2;PMS_P1;PMS_P2;Temp;Humidity;BMP_temperature;BMP_pressure;BME280_temperature;BME280_humidity;BME280_pressure;Samples;Min_cycle;Max_cycle;Signal;HPM_P1;HPM_P2
2022/11/22 00:00:06;;;;;;;2.95;1.60;;;;;;;7.84;78.20;97523.59;341064;29;1127;-68
2022/11/22 00:00:19;;;;;;;3.03;1.75;;;;;;;7.88;78.09;97514.72;341042;29;1031;-68
2022/11/22 00:00:31;;;;;;;4.63;1.80;;;;;;;7.93;77.87;97520.50;340912;29;1357;-67
2022/11/22 00:00:43;;;;;;;5.07;1.65;;;;;;;7.97;78.05;97516.81;341056;29;1488;-68
2022/11/22 00:00:55;;;;;;;4.88;1.50;;;;;;;7.99;78.06;97520.16;341797;28;1228;-68
2022/11/22 00:01:07;;;;;;;3.30;1.55;;;;;;;8.05;77.96;97512.94;342291;28;1016;-68
2022/11/22 00:01:19;;;;;;;3.00;1.52;;;;;;;8.06;77.91;97517.22;342209;28;1169;-68
2022/11/22 00:01:31;;;;;;;2.92;1.50;;;;;;;8.05;77.50;97518.97;342074;28;1035;-68
2022/11/22 00:01:43;;;;;;;3.95;1.48;;;;;;;7.98;77.62;97513.28;341739;28;1164;-68
2022/11/22 00:01:55;;;;;;;4.63;1.50;;;;;;;8.02;77.70;97516.53;342051;28;1306;-68
2022/11/22 00:02:07;;;;;;;4.22;1.60;;;;;;;8.04;77.49;97517.28;341877;28;1173;-68
2022/11/22 00:02:19;;;;;;;3.90;1.50;;;;;;;8.07;77.32;97521.44;340893;28;1738;-68
2022/11/22 00:02:31;;;;;;;4.40;1.50;;;;;;;8.09;77.66;97515.28;340968;29;1672;-68
2022/11/22 00:02:43;;;;;;;3.92;1.55;;;;;;;8.12;77.44;97517.69;340855;29;1114;-68
2022/11/22 00:02:55;;;;;;;4.38;1.60;;;;;;;8.08;77.31;97517.97;339735;29;1186;-68
2022/11/22 00:03:07;;;;;;;4.13;1.60;;;;;;;8.08;77.56;97523.97;339819;29;1438;-68
2022/11/22 00:03:20;;;;;;;4.97;1.70;;;;;;;8.10;77.35;97526.47;338273;29;1245;-67
2022/11/22 00:03:32;;;;;;;4.70;1.73;;;;;;;8.14;77.16;97512.44;338418;29;1027;-68
2022/11/22 00:03:44;;;;;;;3.58;1.58;;;;;;;8.13;76.81;97518.50;338216;29;1285;-68
2022/11/22 00:03:55;;;;;;;3.70;1.55;;;;;;;8.14;76.85;97522.78;338210;29;1172;-68
2022/11/22 00:04:07;;;;;;;3.80;1.67;;;;;;;8.12;76.67;97524.63;338601;29;1063;-68
2022/11/22 00:04:19;;;;;;;2.95;1.70;;;;;;;8.13;76.71;97526.28;339619;29;1071;-67
2022/11/22 00:04:31;;;;;;;4.00;1.70;;;;;;;8.10;76.80;97516.13;339539;29;1173;-68
2022/11/22 00:04:43;;;;;;;4.95;1.92;;;;;;;8.09;77.01;97519.59;339494;29;1253;-68
2022/11/22 00:04:55;;;;;;;5.50;1.90;;;;;;;8.13;77.07;97521.97;340045;28;1344;-68
2022/11/22 00:05:07;;;;;;;4.68;1.77;;;;;;;8.16;76.73;97521.75;338251;29;1768;-68
2022/11/22 00:05:20;;;;;;;3.47;1.70;;;;;;;8.13;76.61;97519.38;338561;29;1331;-68
2022/11/22 00:05:32;;;;;;;4.05;1.85;;;;;;;8.15;76.72;97514.13;339547;29;1145;-68
2022/11/22 00:05:44;;;;;;;3.80;1.98;;;;;;;8.22;76.54;97514.59;339699;29;1535;-68
2022/11/22 00:05:56;;;;;;;3.85;1.90;;;;;;;8.16;76.51;97514.00;339679;29;1574;-68
2022/11/22 00:06:08;;;;;;;4.30;1.70;;;;;;;8.17;76.88;97518.28;339672;29;1116;-68
2022/11/22 00:06:19;;;;;;;4.38;1.65;;;;;;;8.18;76.88;97521.69;340142;29;1292;-68
2022/11/22 00:06:31;;;;;;;4.63;1.80;;;;;;;8.09;76.36;97520.47;341597;28;1109;-68
2022/11/22 00:06:43;;;;;;;4.47;1.95;;;;;;;8.10;76.16;97510.94;342467;28;1073;-68
2022/11/22 00:06:55;;;;;;;5.68;1.95;;;;;;;8.11;76.24;97512.59;341541;28;1576;-68
2022/11/22 00:07:07;;;;;;;5.93;1.92;;;;;;;8.07;76.14;97511.97;339498;29;1037;-68
2022/11/22 00:07:19;;;;;;;5.55;1.90;;;;;;;8.11;76.09;97513.44;340063;29;1307;-68
2022/11/22 00:07:31;;;;;;;4.75;1.80;;;;;;;8.13;75.84;97510.75;340958;29;1024;-67
2022/11/22 00:07:43;;;;;;;3.83;1.90;;;;;;;8.12;75.71;97503.94;341064;29;1048;-68
2022/11/22 00:07:55;;;;;;;3.90;2.00;;;;;;;8.11;76.06;97510.00;340674;29;1858;-68
2022/11/22 00:08:08;;;;;;;4.45;2.13;;;;;;;8.12;75.83;97503.94;340959;29;1067;-68
2022/11/22 00:08:19;;;;;;;4.47;2.10;;;;;;;8.15;76.39;97506.34;341092;29;1044;-68
2022/11/22 00:08:32;;;;;;;3.97;1.95;;;;;;;8.17;76.44;97502.75;340937;29;1320;-68
2022/11/22 00:08:44;;;;;;;5.03;1.95;;;;;;;8.19;76.56;97502.66;340884;29;1036;-68
2022/11/22 00:08:56;;;;;;;5.03;2.13;;;;;;;8.19;76.50;97502.66;340870;29;1052;-68
2022/11/22 00:09:08;;;;;;;4.18;2.03;;;;;;;8.20;76.62;97501.72;340894;29;1039;-68
2022/11/22 00:09:19;;;;;;;3.58;1.85;;;;;;;8.18;76.73;97500.97;340693;29;1076;-68
2022/11/22 00:09:32;;;;;;;3.45;1.70;;;;;;;8.20;76.61;97506.91;341002;29;1055;-68
2022/11/22 00:09:43;;;;;;;4.35;1.75;;;;;;;8.16;76.38;97513.19;341005;29;1327;-68
2022/11/22 00:09:55;;;;;;;3.70;1.60;;;;;;;8.05;75.95;97507.78;341063;29;1042;-69
2022/11/22 00:10:11;;;;;;;4.28;1.75;;;;;;;8.04;75.73;97506.94;341035;29;1087;-69
2022/11/22 00:10:23;;;;;;;4.32;2.15;;;;;;;8.00;75.77;97505.44;340830;29;1297;-70
2022/11/22 00:10:35;;;;;;;4.20;2.10;;;;;;;8.00;75.73;97506.28;341092;29;1090;-70
2022/11/22 00:10:48;;;;;;;4.72;2.13;;;;;;;7.97;75.66;97508.22;340989;29;1061;-70
2022/11/22 00:11:00;;;;;;;4.55;1.90;;;;;;;7.99;75.54;97507.22;340233;29;2239;-69
2022/11/22 00:11:12;;;;;;;3.88;2.00;;;;;;;7.98;75.63;97512.47;340778;29;1011;-70
2022/11/22 00:11:24;;;;;;;3.78;1.90;;;;;;;8.00;75.39;97511.44;340414;28;1592;-71
2022/11/22 00:11:36;;;;;;;3.22;1.65;;;;;;;7.98;75.17;97507.28;339281;29;1639;-69
2022/11/22 00:11:48;;;;;;;3.92;1.80;;;;;;;7.99;75.28;97509.81;338372;29;1156;-69
2022/11/22 00:12:00;;;;;;;4.47;1.80;;;;;;;7.99;75.33;97504.63;338301;29;1103;-69
2022/11/22 00:12:12;;;;;;;4.60;1.80;;;;;;;7.97;75.63;97506.47;338262;29;1333;-70
2022/11/22 00:12:24;;;;;;;3.85;1.73;;;;;;;7.96;75.78;97498.78;338309;29;1857;-70
2022/11/22 00:12:36;;;;;;;4.30;1.85;;;;;;;7.97;76.23;97501.28;339406;29;1995;-69
2022/11/22 00:12:48;;;;;;;4.40;1.90;;;;;;;7.98;76.26;97497.78;339592;29;1072;-69
2022/11/22 00:13:01;;;;;;;3.85;1.80;;;;;;;8.02;76.40;97502.78;338747;29;2155;-69
2022/11/22 00:13:13;;;;;;;4.68;1.80;;;;;;;8.06;77.04;97499.09;338431;29;2412;-70
2022/11/22 00:13:25;;;;;;;4.82;1.77;;;;;;;8.09;77.21;97498.91;340470;29;1390;-69
2022/11/22 00:13:37;;;;;;;3.97;1.80;;;;;;;8.11;77.24;97497.94;338446;29;1059;-70
2022/11/22 00:13:49;;;;;;;3.28;1.73;;;;;;;8.15;77.41;97503.75;339597;29;1166;-69
2022/11/22 00:14:01;;;;;;;3.45;1.63;;;;;;;8.18;77.41;97499.22;339438;29;1280;-70
2022/11/22 00:14:13;;;;;;;3.55;1.70;;;;;;;8.21;77.44;97495.66;339405;29;1803;-72
2022/11/22 00:14:25;;;;;;;4.15;1.90;;;;;;;8.23;77.61;97504.16;339984;29;1660;-69
2022/11/22 00:14:37;;;;;;;3.58;1.83;;;;;;;8.24;77.62;97498.03;339163;28;2210;-69
2022/11/22 00:14:48;;;;;;;2.38;1.63;;;;;;;8.23;77.54;97495.53;339792;29;1664;-70
2022/11/22 00:15:08;;;;;;;2.33;1.50;;;;;;;8.29;77.36;97487.41;340170;29;2389;-70
2022/11/22 00:15:20;;;;;;;3.55;1.55;;;;;;;8.29;77.39;97490.84;340478;29;1268;-70
2022/11/22 00:15:32;;;;;;;5.13;1.60;;;;;;;8.30;77.44;97497.69;340388;29;2148;-69
2022/11/22 00:15:44;;;;;;;5.70;2.00;;;;;;;8.32;77.25;97495.84;340063;29;2198;-69
2022/11/22 00:15:58;;;;;;;5.22;2.00;;;;;;;8.32;77.22;97495.84;340071;29;2532;-69
2022/11/22 00:16:11;;;;;;;3.85;1.52;;;;;;;8.35;77.14;97489.66;339978;29;2739;-70
2022/11/22 00:16:23;;;;;;;2.65;1.58;;;;;;;8.31;77.36;97488.16;340410;29;1150;-69
2022/11/22 00:16:35;;;;;;;3.33;1.52;;;;;;;8.33;77.22;97492.34;340965;29;1341;-70
2022/11/22 00:16:47;;;;;;;3.47;1.60;;;;;;;8.30;77.16;97491.69;340049;29;2237;-69
2022/11/22 00:16:59;;;;;;;3.30;1.63;;;;;;;8.32;77.08;97488.06;340896;29;1153;-69
2022/11/22 00:17:11;;;;;;;2.47;1.40;;;;;;;8.33;77.41;97494.94;340912;29;1028;-69
2022/11/22 00:17:23;;;;;;;3.25;1.50;;;;;;;8.34;77.19;97488.00;338927;29;1960;-68
2022/11/22 00:17:35;;;;;;;4.28;1.60;;;;;;;8.31;77.24;97488.16;338900;29;1089;-69
2022/11/22 00:17:47;;;;;;;4.75;1.88;;;;;;;8.35;77.26;97485.31;339718;29;1178;-68
2022/11/22 00:17:59;;;;;;;4.82;2.13;;;;;;;8.36;77.00;97492.16;339276;29;2026;-69
2022/11/22 00:18:11;;;;;;;4.93;2.20;;;;;;;8.37;76.98;97488.66;339668;29;1251;-69
2022/11/22 00:18:23;;;;;;;3.92;2.05;;;;;;;8.39;77.16;97480.78;339599;29;1336;-69
2022/11/22 00:18:35;;;;;;;3.95;2.03;;;;;;;8.39;77.00;97483.38;339424;29;1270;-69
2022/11/22 00:18:47;;;;;;;4.25;1.90;;;;;;;8.38;77.24;97482.53;339345;29;1068;-69
2022/11/22 00:18:59;;;;;;;4.30;1.80;;;;;;;8.33;76.78;97489.75;338708;29;2271;-69
2022/11/22 00:19:11;;;;;;;2.85;1.55;;;;;;;8.34;76.95;97482.81;338235;29;1045;-68
2022/11/22 00:19:23;;;;;;;1.80;1.50;;;;;;;8.32;76.67;97482.91;338729;29;1587;-69
2022/11/22 00:19:38;;;;;;;2.45;1.58;;;;;;;8.31;76.99;97482.97;340559;29;1535;-68
2022/11/22 00:19:50;;;;;;;3.40;1.60;;;;;;;8.27;77.10;97484.94;340921;29;867;-69
2022/11/22 00:20:05;;;;;;;3.72;1.70;;;;;;;8.29;77.12;97484.81;339941;29;2214;-69
2022/11/22 00:20:17;;;;;;;3.03;1.60;;;;;;;8.26;77.22;97482.44;338790;29;2170;-71
2022/11/22 00:20:29;;;;;;;2.65;1.60;;;;;;;8.24;77.54;97485.09;339430;29;1573;-68
2022/11/22 00:20:41;;;;;;;4.97;1.65;;;;;;;8.24;77.36;97482.50;339901;29;1028;-68
2022/11/22 00:20:53;;;;;;;5.72;1.83;;;;;;;8.14;77.29;97486.56;339605;29;1028;-69
2022/11/22 00:21:06;;;;;;;4.60;1.80;;;;;;;8.10;77.64;97490.25;338976;29;1992;-68
2022/11/22 00:21:18;;;;;;;3.55;1.73;;;;;;;8.09;77.71;97485.97;339370;29;1249;-69
2022/11/22 00:21:30;;;;;;;4.00;1.80;;;;;;;8.08;77.67;97492.09;339351;29;1296;-69
2022/11/22 00:21:42;;;;;;;3.80;1.70;;;;;;;8.10;77.35;97482.47;339647;29;1267;-69
2022/11/22 00:21:54;;;;;;;3.50;1.70;;;;;;;8.17;77.57;97491.56;339701;29;1163;-70
2022/11/22 00:22:06;;;;;;;3.53;1.90;;;;;;;8.24;77.27;97479.94;339447;29;1171;-69
2022/11/22 00:22:18;;;;;;;4.03;1.92;;;;;;;8.29;76.85;97485.69;338687;29;2530;-68
2022/11/22 00:22:31;;;;;;;4.93;2.00;;;;;;;8.27;76.66;97482.34;340884;29;1778;-69
2022/11/22 00:22:43;;;;;;;4.88;1.92;;;;;;;8.27;76.79;97484.94;340677;28;1144;-69
2022/11/22 00:22:57;;;;;;;4.70;1.88;;;;;;;8.20;76.40;97478.44;340832;29;1080;-68
2022/11/22 00:23:09;;;;;;;5.55;1.98;;;;;;;8.21;76.59;97482.72;340225;29;1434;-68
2022/11/22 00:23:21;;;;;;;4.43;1.98;;;;;;;8.24;76.65;97482.50;338067;29;2076;-69
2022/11/22 00:23:33;;;;;;;3.40;1.90;;;;;;;8.22;76.47;97479.19;338154;29;1057;-68
2022/11/22 00:23:45;;;;;;;3.92;2.10;;;;;;;8.24;76.63;97482.50;338688;29;1997;-69
2022/11/22 00:23:57;;;;;;;4.60;2.10;;;;;;;8.28;76.85;97484.00;338175;29;1298;-68
2022/11/22 00:24:11;;;;;;;4.65;2.00;;;;;;;8.26;76.70;97491.03;338196;29;1162;-68
2022/11/22 00:24:23;;;;;;;5.38;2.28;;;;;;;8.29;76.75;97487.41;338993;29;1217;-69
2022/11/22 00:24:35;;;;;;;5.60;2.30;;;;;;;8.25;76.51;97483.34;338939;29;1584;-69
2022/11/22 00:24:50;;;;;;;5.97;2.15;;;;;;;8.26;76.56;97483.25;339665;29;1071;-69
2022/11/22 00:25:02;;;;;;;5.50;2.10;;;;;;;8.26;76.88;97485.84;339708;29;1230;-68
2022/11/22 00:25:14;;;;;;;4.15;2.30;;;;;;;8.23;76.62;97488.63;338341;29;2374;-69
2022/11/22 00:25:26;;;;;;;3.67;2.10;;;;;;;8.14;76.61;97483.97;340139;29;1866;-69
2022/11/22 00:25:38;;;;;;;3.83;1.90;;;;;;;8.00;77.19;97485.56;340427;29;1406;-69
2022/11/22 00:25:50;;;;;;;4.50;1.80;;;;;;;8.07;77.32;97486.09;340787;29;1263;-69
2022/11/22 00:26:02;;;;;;;4.40;1.80;;;;;;;8.07;77.24;97485.22;340732;29;1284;-69
2022/11/22 00:26:14;;;;;;;4.78;1.85;;;;;;;8.10;77.39;97479.88;340916;29;1048;-70
2022/11/22 00:26:26;;;;;;;3.83;1.90;;;;;;;8.08;77.56;97481.72;340825;29;1310;-70
2022/11/22 00:26:38;;;;;;;2.60;1.70;;;;;;;8.06;77.89;97478.41;340300;29;2362;-70
2022/11/22 00:26:50;;;;;;;3.40;1.77;;;;;;;8.05;77.75;97472.41;340388;29;1700;-70
2022/11/22 00:27:02;;;;;;;4.28;1.67;;;;;;;7.94;78.53;97483.34;340852;29;1399;-69
2022/11/22 00:27:14;;;;;;;5.07;1.92;;;;;;;7.97;78.45;97480.59;340767;29;1038;-70
2022/11/22 00:27:26;;;;;;;3.83;1.90;;;;;;;8.02;78.25;97482.09;340473;29;1065;-69
2022/11/22 00:27:38;;;;;;;3.58;1.75;;;;;;;8.05;77.95;97477.56;340741;28;1227;-70
2022/11/22 00:27:50;;;;;;;3.83;1.70;;;;;;;8.10;77.68;97475.53;339815;29;2382;-69
2022/11/22 00:28:02;;;;;;;3.45;1.73;;;;;;;8.14;77.71;97481.38;340912;29;1877;-69
2022/11/22 00:28:14;;;;;;;3.97;1.92;;;;;;;8.12;77.72;97472.88;340764;29;1334;-69
2022/11/22 00:28:26;;;;;;;3.60;1.98;;;;;;;8.16;77.40;97479.53;340503;29;1787;-70
2022/11/22 00:28:38;;;;;;;2.92;1.85;;;;;;;8.14;77.48;97476.22;339415;29;2356;-70
2022/11/22 00:28:50;;;;;;;2.63;1.67;;;;;;;8.17;77.50;97481.22;339289;29;2140;-70
2022/11/22 00:29:02;;;;;;;2.75;1.60;;;;;;;8.21;77.66;97482.72;341050;29;1092;-69
2022/11/22 00:29:14;;;;;;;3.28;1.55;;;;;;;8.22;77.44;97478.34;340773;28;1198;-70
2022/11/22 00:29:26;;;;;;;3.55;1.70;;;;;;;8.23;77.19;97483.44;339690;29;1096;-68
2022/11/22 00:29:39;;;;;;;3.65;1.73;;;;;;;8.23;77.02;97478.28;339790;29;1138;-69
2022/11/22 00:29:51;;;;;;;3.92;1.88;;;;;;;8.24;77.05;97477.34;339330;29;1165;-68
2022/11/22 00:30:03;;;;;;;3.95;1.83;;;;;;;8.26;76.96;97485.03;340182;29;1576;-69
2022/11/22 00:30:15;;;;;;;3.90;1.95;;;;;;;8.28;76.79;97476.25;340950;29;1250;-69
2022/11/22 00:30:27;;;;;;;3.92;2.00;;;;;;;8.26;76.70;97475.50;340046;29;1598;-68
2022/11/22 00:30:39;;;;;;;4.53;2.17;;;;;;;8.26;76.78;97478.09;340513;29;1465;-68
2022/11/22 00:30:51;;;;;;;5.50;2.10;;;;;;;8.28;76.49;97467.66;339783;28;1204;-68
2022/11/22 00:31:03;;;;;;;4.82;1.95;;;;;;;8.25;76.47;97478.16;340018;29;2191;-68
2022/11/22 00:31:15;;;;;;;4.35;1.90;;;;;;;8.23;76.58;97480.88;339760;29;1051;-69
2022/11/22 00:31:27;;;;;;;4.68;1.90;;;;;;;8.21;76.57;97472.34;339623;29;1670;-68
2022/11/22 00:31:39;;;;;;;5.18;1.88;;;;;;;8.20;76.94;97473.25;339611;29;1060;-68
2022/11/22 00:31:51;;;;;;;4.68;1.80;;;;;;;8.21;76.72;97469.75;339540;29;1314;-68
2022/11/22 00:32:03;;;;;;;4.78;1.95;;;;;;;8.20;76.97;97473.25;339195;29;2408;-68
2022/11/22 00:32:15;;;;;;;4.70;2.17;;;;;;;8.17;76.83;97476.03;340947;29;1072;-68
2022/11/22 00:32:27;;;;;;;5.05;2.05;;;;;;;8.17;77.11;97476.03;340706;29;1136;-68
2022/11/22 00:32:39;;;;;;;4.30;2.00;;;;;;;8.16;77.00;97474.38;340249;29;1962;-68
2022/11/22 00:32:51;;;;;;;3.78;1.92;;;;;;;8.19;77.24;97477.63;339767;29;1100;-68
2022/11/22 00:33:03;;;;;;;3.33;1.77;;;;;;;8.18;77.34;97477.69;339917;29;1087;-68
2022/11/22 00:33:15;;;;;;;4.20;1.70;;;;;;;8.23;77.46;97482.59;338878;29;1556;-68
2022/11/22 00:33:27;;;;;;;4.80;1.75;;;;;;;8.23;77.28;97480.88;338526;29;1040;-68
2022/11/22 00:33:39;;;;;;;3.88;1.67;;;;;;;8.24;77.38;97477.34;338299;29;1072;-68
2022/11/22 00:33:51;;;;;;;3.28;1.67;;;;;;;8.25;77.43;97478.16;338281;29;1044;-67
2022/11/22 00:34:03;;;;;;;3.70;1.70;;;;;;;8.28;77.44;97473.66;338294;29;1314;-68
2022/11/22 00:34:15;;;;;;;3.35;1.73;;;;;;;8.27;77.47;97477.19;338190;29;2012;-68
2022/11/22 00:34:27;;;;;;;3.70;1.77;;;;;;;8.25;77.56;97479.03;338940;29;1044;-68
2022/11/22 00:34:39;;;;;;;4.63;1.80;;;;;;;8.27;77.63;97486.66;339418;29;1081;-68
2022/11/22 00:34:51;;;;;;;4.67;1.70;;;;;;;8.26;77.88;97482.44;339339;29;1355;-69
2022/11/22 00:35:03;;;;;;;5.13;1.80;;;;;;;8.26;77.89;97485.03;339538;29;1199;-69
2022/11/22 00:35:15;;;;;;;5.30;1.80;;;;;;;8.30;77.58;97486.50;341123;29;1107;-68
2022/11/22 00:35:27;;;;;;;4.85;1.75;;;;;;;8.31;77.83;97489.00;338658;29;1729;-68
2022/11/22 00:35:39;;;;;;;3.63;1.60;;;;;;;8.28;78.23;97489.19;339296;29;2008;-68
2022/11/22 00:35:51;;;;;;;3.90;1.60;;;;;;;8.33;78.13;97478.53;339265;29;1169;-68
2022/11/22 00:36:03;;;;;;;2.70;1.50;;;;;;;8.29;78.23;97483.09;339181;29;1896;-68
2022/11/22 00:36:16;;;;;;;3.40;1.70;;;;;;;8.27;78.12;97482.34;339736;29;1117;-68
2022/11/22 00:36:28;;;;;;;3.25;1.70;;;;;;;8.28;78.05;97476.25;339490;29;1088;-69
2022/11/22 00:36:39;;;;;;;3.10;1.73;;;;;;;8.24;78.11;97479.94;338634;29;2650;-68
2022/11/22 00:36:51;;;;;;;3.42;1.58;;;;;;;8.26;77.99;97480.66;339469;29;1856;-68
2022/11/22 00:37:03;;;;;;;3.88;1.58;;;;;;;8.29;78.05;97485.69;339600;29;1104;-68
2022/11/22 00:37:15;;;;;;;3.90;1.60;;;;;;;8.30;77.89;97486.50;339392;29;1303;-68
2022/11/22 00:37:27;;;;;;;3.88;1.67;;;;;;;8.31;78.36;97483.84;338272;29;2983;-70
2022/11/22 00:37:40;;;;;;;3.40;1.70;;;;;;;8.35;77.86;97490.50;340000;29;1762;-68
2022/11/22 00:37:51;;;;;;;2.55;1.50;;;;;;;8.36;77.66;97486.97;340922;29;1852;-68
2022/11/22 00:38:03;;;;;;;2.78;1.42;;;;;;;8.38;77.70;97486.91;339919;29;1054;-68
2022/11/22 00:38:15;;;;;;;3.10;1.58;;;;;;;8.37;77.87;97487.81;339628;29;1278;-68
2022/11/22 00:38:27;;;;;;;3.67;1.60;;;;;;;8.36;77.77;97480.97;339345;29;1290;-68
2022/11/22 00:38:39;;;;;;;3.30;1.50;;;;;;;8.33;77.85;97484.59;339553;29;2345;-67
2022/11/22 00:38:51;;;;;;;3.15;1.42;;;;;;;8.35;77.99;97485.31;339513;29;1799;-69
2022/11/22 00:39:03;;;;;;;2.85;1.50;;;;;;;8.36;77.82;97486.97;341061;29;1873;-71
2022/11/22 00:39:15;;;;;;;5.05;2.30;;;;;;;8.34;77.90;97483.66;340958;29;1112;-68
2022/11/22 00:39:27;;;;;;;6.10;2.40;;;;;;;8.35;77.73;97485.31;339669;29;1289;-68
2022/11/22 00:39:40;;;;;;;4.93;2.00;;;;;;;8.38;77.74;97481.72;339487;29;2189;-70
2022/11/22 00:39:52;;;;;;;2.70;1.52;;;;;;;8.33;77.79;97487.16;339680;29;1057;-67
2022/11/22 00:40:05;;;;;;;3.58;1.60;;;;;;;8.35;77.59;97485.31;339570;29;1213;-67
2022/11/22 00:40:17;;;;;;;3.47;1.48;;;;;;;8.33;77.69;97486.31;340669;29;1072;-67
2022/11/22 00:40:28;;;;;;;3.30;1.40;;;;;;;8.30;77.63;97484.75;340022;29;1698;-67
2022/11/22 00:40:41;;;;;;;2.67;1.30;;;;;;;8.28;77.44;97476.25;339617;29;1044;-67
2022/11/22 00:40:53;;;;;;;3.25;1.45;;;;;;;8.23;77.48;97483.44;339542;29;1068;-67
2022/11/22 00:41:05;;;;;;;3.25;1.50;;;;;;;8.26;77.89;97483.25;339535;29;1207;-67
2022/11/22 00:41:17;;;;;;;3.95;1.50;;;;;;;8.30;77.68;97481.34;339783;29;1189;-67
2022/11/22 00:41:29;;;;;;;4.15;1.58;;;;;;;8.32;77.90;97482.91;339608;29;1156;-67
2022/11/22 00:41:41;;;;;;;6.15;1.90;;;;;;;8.33;77.53;97482.00;339635;29;1108;-67
2022/11/22 00:41:53;;;;;;;5.22;1.90;;;;;;;8.37;77.64;97486.06;339992;29;1292;-67
2022/11/22 00:42:05;;;;;;;4.15;1.52;;;;;;;8.38;77.74;97485.13;340760;29;1056;-67
2022/11/22 00:42:17;;;;;;;4.70;1.60;;;;;;;8.39;77.72;97483.38;340730;29;1289;-67
2022/11/22 00:42:29;;;;;;;4.97;1.65;;;;;;;8.40;77.70;97480.69;340749;29;1051;-67
2022/11/22 00:42:41;;;;;;;4.57;1.60;;;;;;;8.40;77.71;97488.47;340935;29;1113;-67
2022/11/22 00:42:53;;;;;;;2.83;1.45;;;;;;;8.38;77.70;97485.13;340842;29;1183;-67
2022/11/22 00:43:05;;;;;;;2.78;1.30;;;;;;;8.38;77.85;97484.31;340861;29;1295;-67
2022/11/22 00:43:17;;;;;;;2.70;1.20;;;;;;;8.39;77.80;97492.00;340765;29;1060;-67
2022/11/22 00:43:29;;;;;;;3.75;1.30;;;;;;;8.39;77.65;97486.81;340793;29;1223;-67
2022/11/22 00:43:41;;;;;;;3.50;1.30;;;;;;;8.34;77.74;97483.66;340911;29;1159;-67
2022/11/22 00:43:53;;;;;;;2.33;1.42;;;;;;;8.38;77.82;97492.06;340934;29;1212;-67
2022/11/22 00:44:04;;;;;;;2.40;1.50;;;;;;;8.40;77.86;97488.47;340907;29;1152;-67
2022/11/22 00:44:16;;;;;;;2.55;1.48;;;;;;;8.44;77.79;97488.31;340858;29;1068;-67
2022/11/22 00:44:28;;;;;;;3.20;1.40;;;;;;;8.44;77.63;97490.91;340851;29;1236;-67
2022/11/22 00:44:40;;;;;;;3.85;1.40;;;;;;;8.46;77.98;97489.91;340793;29;1269;-67
2022/11/22 00:44:52;;;;;;;3.97;1.40;;;;;;;8.46;77.66;97486.47;340810;28;1329;-67
2022/11/22 00:45:05;;;;;;;4.55;1.40;;;;;;;8.50;77.71;97485.38;340696;29;1068;-67
2022/11/22 00:45:17;;;;;;;5.18;1.45;;;;;;;8.51;77.81;97487.03;340948;29;1064;-67
2022/11/22 00:45:29;;;;;;;4.75;1.55;;;;;;;8.52;77.67;97486.13;340860;29;1374;-67
2022/11/22 00:45:41;;;;;;;4.53;1.65;;;;;;;8.55;77.43;97485.91;340629;28;1932;-67
2022/11/22 00:45:52;;;;;;;2.85;1.65;;;;;;;8.55;77.51;97491.09;340838;29;1659;-67
2022/11/22 00:46:05;;;;;;;3.38;1.55;;;;;;;8.55;77.60;97491.97;340866;29;1316;-67
2022/11/22 00:46:16;;;;;;;4.38;1.55;;;;;;;8.55;77.78;97491.09;340683;29;1403;-67
2022/11/22 00:46:28;;;;;;;5.90;1.60;;;;;;;8.57;77.63;97489.25;340759;29;1281;-67
2022/11/22 00:46:40;;;;;;;4.85;1.48;;;;;;;8.58;77.36;97490.94;340881;29;1290;-67
2022/11/22 00:46:52;;;;;;;4.60;1.50;;;;;;;8.61;77.47;97490.72;340842;29;1245;-67
2022/11/22 00:47:04;;;;;;;4.65;1.50;;;;;;;8.62;77.19;97492.41;340880;29;1056;-67
2022/11/22 00:47:30;;;;;;;2.70;1.30;;;;;;;8.63;77.09;97486.31;345337;23;1694;-68
2022/11/22 00:47:41;;;;;;;3.90;1.30;;;;;;;8.63;77.23;97493.25;344521;28;1318;-69
2022/11/22 00:47:53;;;;;;;5.03;1.50;;;;;;;8.63;77.41;97491.47;344702;28;1283;-69
2022/11/22 00:48:05;;;;;;;4.13;1.52;;;;;;;8.63;77.24;97488.88;344856;28;1643;-69
2022/11/22 00:48:17;;;;;;;3.47;1.60;;;;;;;8.63;77.31;97494.06;344868;28;1087;-67
2022/11/22 00:48:29;;;;;;;3.00;1.60;;;;;;;8.58;77.65;97499.53;344217;28;2051;-67
2022/11/22 00:48:41;;;;;;;2.83;1.42;;;;;;;8.59;77.69;97492.59;344331;28;1657;-67
2022/11/22 00:48:53;;;;;;;3.67;1.42;;;;;;;8.55;77.84;97496.28;344664;28;1206;-67
2022/11/22 00:49:05;;;;;;;3.53;1.40;;;;;;;8.58;77.84;97496.13;345017;28;1118;-67
2022/11/22 00:49:17;;;;;;;2.65;1.45;;;;;;;8.57;77.49;97490.09;344706;28;1255;-67
2022/11/22 00:49:29;;;;;;;3.47;1.60;;;;;;;8.59;77.58;97487.41;341997;28;2535;-67
2022/11/22 00:49:42;;;;;;;4.10;1.70;;;;;;;8.57;77.86;97495.28;344995;28;1121;-67
2022/11/22 00:49:53;;;;;;;4.47;1.55;;;;;;;8.55;77.76;97486.78;344975;28;1082;-67
2022/11/22 00:50:06;;;;;;;6.32;1.52;;;;;;;8.52;77.68;97491.31;344976;28;1088;-67
2022/11/22 00:50:18;;;;;;;6.57;1.63;;;;;;;8.54;77.65;97492.03;343394;28;1403;-67
2022/11/22 00:50:29;;;;;;;7.65;1.63;;;;;;;8.57;77.30;97494.44;342789;28;1652;-67
2022/11/22 00:50:41;;;;;;;6.75;1.60;;;;;;;8.44;77.23;97498.69;342363;28;1776;-67
2022/11/22 00:50:54;;;;;;;6.75;1.50;;;;;;;8.43;77.20;97499.59;342163;28;1060;-67
2022/11/22 00:51:06;;;;;;;4.22;1.50;;;;;;;8.42;77.62;97496.19;342174;28;1013;-67
2022/11/22 00:51:18;;;;;;;4.07;1.50;;;;;;;8.44;77.69;97493.50;342037;28;1921;-69
2022/11/22 00:51:30;;;;;;;3.47;1.60;;;;;;;8.43;77.88;97502.19;342202;28;1142;-68
2022/11/22 00:51:42;;;;;;;3.10;1.58;;;;;;;8.44;77.90;97493.50;341273;28;1599;-67
2022/11/22 00:51:54;;;;;;;3.30;1.48;;;;;;;8.48;77.74;97500.16;341851;28;1800;-67
2022/11/22 00:52:06;;;;;;;2.90;1.33;;;;;;;8.46;77.89;97502.84;342313;28;1158;-67
2022/11/22 00:52:18;;;;;;;2.95;1.48;;;;;;;8.42;78.12;97501.34;342369;28;1216;-67
2022/11/22 00:52:30;;;;;;;3.30;1.40;;;;;;;8.43;77.93;97503.03;342053;28;2518;-67
2022/11/22 00:52:42;;;;;;;4.70;1.40;;;;;;;8.40;77.79;97498.81;343556;28;1480;-67
2022/11/22 00:52:54;;;;;;;4.55;1.30;;;;;;;8.42;78.22;97508.28;344365;28;1550;-67
2022/11/22 00:53:06;;;;;;;3.83;1.30;;;;;;;8.43;78.03;97494.41;341012;29;1251;-67
2022/11/22 00:53:18;;;;;;;5.00;1.40;;;;;;;8.48;77.96;97500.16;340916;29;1048;-67
2022/11/22 00:53:30;;;;;;;4.70;1.40;;;;;;;8.44;78.00;97503.88;341123;29;1275;-67
2022/11/22 00:53:42;;;;;;;3.15;1.48;;;;;;;8.46;78.22;97497.66;340755;29;1027;-67
2022/11/22 00:53:54;;;;;;;2.78;1.60;;;;;;;8.49;78.10;97512.19;341357;28;1647;-67
2022/11/22 00:54:06;;;;;;;2.85;1.70;;;;;;;8.43;77.89;97510.81;342230;28;1189;-67
2022/11/22 00:54:18;;;;;;;3.20;1.70;;;;;;;8.36;77.94;97512.03;342000;28;1274;-67
2022/11/22 00:54:29;;;;;;;3.67;1.70;;;;;;;8.39;77.85;97504.94;341632;28;1613;-67
2022/11/22 00:54:44;;;;;;;3.45;1.52;;;;;;;8.43;77.88;97509.94;342255;28;1330;-67
2022/11/22 00:55:02;;;;;;;4.78;1.50;;;;;;;8.43;77.74;97508.22;343488;28;1034;-67
2022/11/22 00:55:15;;;;;;;4.47;1.60;;;;;;;8.48;77.82;97515.69;344943;28;2059;-67
2022/11/22 00:55:27;;;;;;;5.13;1.80;;;;;;;8.45;78.04;97502.91;343760;28;1218;-67
2022/11/22 00:55:38;;;;;;;4.05;1.65;;;;;;;8.48;78.20;97510.53;343576;28;1287;-67
2022/11/22 00:55:50;;;;;;;3.67;1.52;;;;;;;8.52;78.18;97512.00;343592;28;1011;-67
2022/11/22 00:56:03;;;;;;;2.78;1.40;;;;;;;8.53;77.99;97513.66;343847;28;1230;-67
2022/11/22 00:56:14;;;;;;;2.88;1.50;;;;;;;8.53;78.06;97513.66;343571;28;1290;-67
2022/11/22 00:56:26;;;;;;;3.75;1.60;;;;;;;8.54;77.84;97520.53;342620;28;1852;-67
2022/11/22 00:56:38;;;;;;;3.38;1.50;;;;;;;8.57;77.70;97513.41;344004;28;737;-67
2022/11/22 00:56:50;;;;;;;3.42;1.45;;;;;;;8.57;77.91;97522.91;342415;28;1205;-67
2022/11/22 00:57:02;;;;;;;2.72;1.55;;;;;;;8.56;77.76;97514.31;342206;28;1168;-67
2022/11/22 00:57:14;;;;;;;3.47;1.48;;;;;;;8.58;77.58;97511.66;341870;28;1518;-67
2022/11/22 00:57:26;;;;;;;4.18;1.40;;;;;;;8.59;77.55;97518.47;343100;28;1306;-67
2022/11/22 00:57:38;;;;;;;4.30;1.58;;;;;;;8.53;77.70;97508.47;343407;28;1193;-67
2022/11/22 00:57:50;;;;;;;3.85;1.65;;;;;;;8.55;77.76;97517.00;343431;28;1693;-67
2022/11/22 00:58:02;;;;;;;3.35;1.60;;;;;;;8.58;77.48;97516.84;344896;28;1119;-67
2022/11/22 00:58:14;;;;;;;3.83;1.50;;;;;;;8.59;77.45;97514.16;344885;28;1097;-67
2022/11/22 00:58:26;;;;;;;4.78;1.50;;;;;;;8.60;77.37;97510.63;343594;28;1275;-67
2022/11/22 00:58:38;;;;;;;4.63;1.50;;;;;;;8.64;77.50;97513.06;343475;28;1351;-67
2022/11/22 00:58:50;;;;;;;3.63;1.42;;;;;;;8.63;77.55;97519.13;343664;28;1308;-68
2022/11/22 00:59:02;;;;;;;2.92;1.40;;;;;;;8.58;77.59;97509.88;343895;28;1003;-67
2022/11/22 00:59:14;;;;;;;3.13;1.40;;;;;;;8.63;77.70;97516.56;344856;28;1467;-67
2022/11/22 00:59:26;;;;;;;2.42;1.27;;;;;;;8.59;77.24;97513.31;345208;28;1109;-68